21  °C
Temperature
10  °C
  Dewpoint
   Humidity
Temp | Dewpoint | Humidity
5  km/h
Wind Speed
3  mph
Wind Speed
3  kts
Wind Speed
Calm
Due North

Wind Speed
Clear
Conditions
Pressure 1027.92 (hPa) - 30.35 (in)
Visibility 6.2 (mi) - 10.0 (km)

Current Conditions
LKLN
Location 6km (3.2mi)
Metar :LKLN 211400Z AUTO VRB03KT CAVOK 21/10 Q1028
Wed 21st August 16:00 pm

Airport
  Metar Aviation API Data Provided by https://www.checkwx.com/ CSS/SVG/PHP scripts by weather34.com © 2015-2019